Time;durP1;ratioP1;P1;durP2;ratioP2;P2;SDS_P1;SDS_P2;PMS_P1;PMS_P2;Temp;Humidity;BMP_temperature;BMP_pressure;BME280_temperature;BME280_humidity;BME280_pressure;Samples;Min_cycle;Max_cycle;Signal;HPM_P1;HPM_P2
2023/05/11 00:00:38;;;;;;;11.55;2.22;;;;;;;;;;5062351;28;20055;-70
2023/05/11 00:03:05;;;;;;;13.88;2.92;;;;;;;;;;5064804;28;20052;-71
2023/05/11 00:05:32;;;;;;;15.15;2.92;;;;;;;;;;5071934;28;20040;-70
2023/05/11 00:07:58;;;;;;;12.05;2.60;;;;;;;;;;5068452;28;20045;-70
2023/05/11 00:10:24;;;;;;;12.95;3.20;;;;;;;;;;5071915;28;20047;-70
2023/05/11 00:16:14;;;;;;;11.10;2.70;;;;;;;;;;5068571;28;20042;-71
2023/05/11 00:18:41;;;;;;;12.23;3.03;;;;;;;;;;5066579;28;20546;-71
2023/05/11 00:21:07;;;;;;;14.50;2.58;;;;;;;;;;5070709;28;20040;-71
2023/05/11 00:23:33;;;;;;;15.45;3.45;;;;;;;;;;5054975;28;20147;-70
2023/05/11 00:26:00;;;;;;;13.52;2.78;;;;;;;;;;5071260;28;20048;-71
2023/05/11 00:28:26;;;;;;;11.18;2.47;;;;;;;;;;5052032;28;20054;-71
2023/05/11 00:30:56;;;;;;;15.77;3.35;;;;;;;;;;5071702;28;20049;-71
2023/05/11 00:33:23;;;;;;;16.17;3.13;;;;;;;;;;5050235;28;20200;-71
2023/05/11 00:35:50;;;;;;;14.77;2.80;;;;;;;;;;5071456;28;20094;-71
2023/05/11 00:38:16;;;;;;;11.40;2.45;;;;;;;;;;5048211;28;20040;-71
2023/05/11 00:40:42;;;;;;;15.07;2.58;;;;;;;;;;5071653;28;20066;-71
2023/05/11 00:43:09;;;;;;;12.32;2.70;;;;;;;;;;5046569;28;20123;-71
2023/05/11 00:45:35;;;;;;;13.55;2.95;;;;;;;;;;5071764;28;20423;-71
2023/05/11 00:48:02;;;;;;;10.02;2.75;;;;;;;;;;5044757;28;20052;-71
2023/05/11 00:50:29;;;;;;;10.70;2.80;;;;;;;;;;5071778;28;20051;-71
2023/05/11 00:52:56;;;;;;;10.98;2.88;;;;;;;;;;5056600;28;20128;-71
2023/05/11 00:55:23;;;;;;;12.98;2.67;;;;;;;;;;5071729;28;20044;-71
2023/05/11 00:57:49;;;;;;;11.55;2.67;;;;;;;;;;5055684;28;20488;-71
2023/05/11 01:00:16;;;;;;;11.25;2.25;;;;;;;;;;5071427;28;20052;-71
2023/05/11 01:02:42;;;;;;;9.53;2.30;;;;;;;;;;5067820;28;20094;-71
2023/05/11 01:05:09;;;;;;;9.13;2.78;;;;;;;;;;5071451;28;20045;-71
2023/05/11 01:07:39;;;;;;;11.45;2.40;;;;;;;;;;5067547;28;20056;-71
2023/05/11 01:10:32;;;;;;;11.90;2.88;;;;;;;;;;5071104;28;20605;-71
2023/05/11 01:13:28;;;;;;;10.73;2.70;;;;;;;;;;5064184;28;20475;-71
2023/05/11 01:15:55;;;;;;;13.27;2.90;;;;;;;;;;5061753;28;20097;-71
2023/05/11 01:18:25;;;;;;;11.63;2.50;;;;;;;;;;5062925;28;20048;-71
2023/05/11 01:20:54;;;;;;;11.48;2.90;;;;;;;;;;5071257;28;20045;-71
2023/05/11 01:23:29;;;;;;;11.25;2.30;;;;;;;;;;5053456;28;20144;-71
2023/05/11 01:26:07;;;;;;;9.30;2.55;;;;;;;;;;5075074;28;20045;-71
2023/05/11 01:28:36;;;;;;;11.50;2.75;;;;;;;;;;5065825;28;20045;-71
2023/05/11 01:31:07;;;;;;;15.40;2.78;;;;;;;;;;5074890;28;20048;-71
2023/05/11 01:33:36;;;;;;;7.85;2.28;;;;;;;;;;5064873;28;20048;-71
2023/05/11 01:36:05;;;;;;;11.60;2.72;;;;;;;;;;5074727;28;20107;-71
2023/05/11 01:38:33;;;;;;;9.45;2.72;;;;;;;;;;5061777;28;20045;-71
2023/05/11 01:41:00;;;;;;;8.85;2.40;;;;;;;;;;5068259;28;20044;-71
2023/05/11 01:43:27;;;;;;;11.30;2.70;;;;;;;;;;5070516;28;20163;-71
2023/05/11 01:45:57;;;;;;;11.10;2.67;;;;;;;;;;5074810;28;20060;-71
2023/05/11 01:48:26;;;;;;;9.07;2.70;;;;;;;;;;5072019;28;20062;-71
2023/05/11 01:50:55;;;;;;;10.52;2.60;;;;;;;;;;5074338;28;20080;-71
2023/05/11 01:53:22;;;;;;;11.57;2.67;;;;;;;;;;5054474;28;20051;-71
2023/05/11 01:55:49;;;;;;;13.63;3.25;;;;;;;;;;5074460;28;20054;-71
2023/05/11 01:58:16;;;;;;;15.98;3.30;;;;;;;;;;5052530;28;20054;-71
2023/05/11 02:00:43;;;;;;;15.13;2.67;;;;;;;;;;5074532;28;20045;-71
2023/05/11 02:03:10;;;;;;;10.30;2.77;;;;;;;;;;5050176;28;20407;-71
2023/05/11 02:05:37;;;;;;;11.60;2.55;;;;;;;;;;5074148;28;20049;-71
2023/05/11 02:08:04;;;;;;;10.70;2.85;;;;;;;;;;5048537;28;20080;-71
2023/05/11 02:10:32;;;;;;;11.88;3.17;;;;;;;;;;5074428;28;20083;-71
2023/05/11 02:12:59;;;;;;;10.13;2.42;;;;;;;;;;5059008;28;20057;-71
2023/05/11 02:15:25;;;;;;;13.53;3.03;;;;;;;;;;5074207;28;20555;-71
2023/05/11 02:17:52;;;;;;;11.57;2.80;;;;;;;;;;5072343;28;20371;-71
2023/05/11 02:20:19;;;;;;;10.02;2.80;;;;;;;;;;5073975;28;20132;-71
2023/05/11 02:22:46;;;;;;;14.03;3.00;;;;;;;;;;5070970;28;20051;-71
2023/05/11 02:25:14;;;;;;;12.32;3.08;;;;;;;;;;5073042;28;20360;-71
2023/05/11 02:27:40;;;;;;;11.77;2.67;;;;;;;;;;5069582;28;20450;-71
2023/05/11 02:30:07;;;;;;;9.88;2.60;;;;;;;;;;5073976;28;20056;-71
2023/05/11 02:32:35;;;;;;;11.88;3.80;;;;;;;;;;5069254;28;20147;-72
2023/05/11 02:35:05;;;;;;;12.95;3.25;;;;;;;;;;5072469;28;20559;-71
2023/05/11 02:37:33;;;;;;;10.88;2.78;;;;;;;;;;5064431;28;20094;-71
2023/05/11 02:40:02;;;;;;;11.88;2.80;;;;;;;;;;5073448;28;20052;-71
2023/05/11 02:42:29;;;;;;;12.55;3.55;;;;;;;;;;5067225;28;20113;-71
2023/05/11 02:45:07;;;;;;;10.02;2.95;;;;;;;;;;5072318;28;20056;-71
2023/05/11 02:47:33;;;;;;;;;;;;;;;;;;5066080;28;20140;-71
2023/05/11 02:50:02;;;;;;;9.32;3.13;;;;;;;;;;5072491;28;19924;-71
2023/05/11 02:52:30;;;;;;;12.57;3.28;;;;;;;;;;5064137;28;20851;-71
2023/05/11 02:54:57;;;;;;;;;;;;;;;;;;5073605;28;20572;-71
2023/05/11 02:57:23;;;;;;;9.15;2.88;;;;;;;;;;5056292;28;19921;-71
2023/05/11 02:59:50;;;;;;;11.23;2.88;;;;;;;;;;5073199;28;20075;-71
2023/05/11 03:02:16;;;;;;;9.30;3.00;;;;;;;;;;5054327;28;20045;-72
2023/05/11 03:04:43;;;;;;;8.57;2.72;;;;;;;;;;5073001;28;20515;-71
2023/05/11 03:07:10;;;;;;;10.70;3.15;;;;;;;;;;5062642;28;20516;-71
2023/05/11 03:09:36;;;;;;;12.15;3.40;;;;;;;;;;5072346;28;20056;-71
2023/05/11 03:12:03;;;;;;;11.80;3.00;;;;;;;;;;5063813;28;20082;-72
2023/05/11 03:14:31;;;;;;;9.68;3.35;;;;;;;;;;5070045;28;20040;-72
2023/05/11 03:16:58;;;;;;;10.73;2.95;;;;;;;;;;5064001;28;20403;-72
2023/05/11 03:19:29;;;;;;;8.93;3.13;;;;;;;;;;5068520;28;20059;-71
2023/05/11 03:21:56;;;;;;;11.93;3.35;;;;;;;;;;5064277;28;20049;-71
2023/05/11 03:24:23;;;;;;;5.90;2.53;;;;;;;;;;5067488;28;20075;-71
2023/05/11 03:26:50;;;;;;;8.77;3.00;;;;;;;;;;5064902;28;20490;-71
2023/05/11 03:29:17;;;;;;;12.17;2.90;;;;;;;;;;5065426;28;20063;-71
2023/05/11 03:31:43;;;;;;;7.53;2.75;;;;;;;;;;5066512;28;20691;-71
2023/05/11 03:34:10;;;;;;;13.23;3.65;;;;;;;;;;5063765;28;20048;-71
2023/05/11 03:36:38;;;;;;;8.57;3.10;;;;;;;;;;5069664;28;20496;-71
2023/05/11 03:39:04;;;;;;;;;;;;;;;;;;5072838;28;20367;-71
2023/05/11 03:41:31;;;;;;;10.13;3.42;;;;;;;;;;5068998;28;19924;-71
2023/05/11 03:43:58;;;;;;;9.35;3.33;;;;;;;;;;5072491;28;20074;-71
2023/05/11 03:46:25;;;;;;;6.95;2.72;;;;;;;;;;5067674;28;20347;-71
2023/05/11 03:48:52;;;;;;;9.67;3.20;;;;;;;;;;5054557;28;20140;-71
2023/05/11 03:51:19;;;;;;;6.90;2.92;;;;;;;;;;5069026;28;20289;-71
2023/05/11 03:53:46;;;;;;;6.53;3.00;;;;;;;;;;5066565;28;20087;-71
2023/05/11 03:56:12;;;;;;;10.60;3.30;;;;;;;;;;5069740;28;20131;-71
2023/05/11 03:58:39;;;;;;;7.53;3.20;;;;;;;;;;5064653;28;20059;-71
2023/05/11 04:01:07;;;;;;;10.90;3.13;;;;;;;;;;5071288;28;20044;-71
2023/05/11 04:03:34;;;;;;;10.32;3.22;;;;;;;;;;5062544;28;20139;-71
2023/05/11 04:06:00;;;;;;;8.50;2.92;;;;;;;;;;5071901;28;20055;-71
2023/05/11 04:08:27;;;;;;;7.72;3.08;;;;;;;;;;5060307;28;20131;-71
2023/05/11 04:10:53;;;;;;;7.97;2.88;;;;;;;;;;5071773;28;20060;-72
2023/05/11 04:13:20;;;;;;;6.72;3.00;;;;;;;;;;5059943;28;20044;-72
2023/05/11 04:15:46;;;;;;;13.45;3.78;;;;;;;;;;5070666;28;20049;-71
2023/05/11 04:18:12;;;;;;;10.95;3.08;;;;;;;;;;5047746;28;20488;-72
2023/05/11 04:20:39;;;;;;;8.85;2.83;;;;;;;;;;5071797;28;20135;-72
2023/05/11 04:23:05;;;;;;;11.27;3.05;;;;;;;;;;5046024;28;20513;-71
2023/05/11 04:25:35;;;;;;;10.18;3.47;;;;;;;;;;5071901;28;20079;-72
2023/05/11 04:28:01;;;;;;;9.95;3.10;;;;;;;;;;5053183;28;20060;-72
2023/05/11 04:30:28;;;;;;;9.77;3.45;;;;;;;;;;5071637;28;20060;-72
2023/05/11 04:32:54;;;;;;;12.48;3.10;;;;;;;;;;5042629;28;20509;-72
2023/05/11 04:35:20;;;;;;;12.85;3.03;;;;;;;;;;5070821;28;20040;-72
2023/05/11 04:37:47;;;;;;;5.05;2.30;;;;;;;;;;5068899;28;20117;-71
2023/05/11 04:40:13;;;;;;;8.13;2.90;;;;;;;;;;5071717;28;20055;-71
2023/05/11 04:42:40;;;;;;;11.98;3.22;;;;;;;;;;5067364;28;20484;-72
2023/05/11 04:45:06;;;;;;;11.35;3.25;;;;;;;;;;5071417;28;20053;-72
2023/05/11 04:47:32;;;;;;;12.13;3.65;;;;;;;;;;5065601;28;20058;-72
2023/05/11 04:49:59;;;;;;;8.23;3.30;;;;;;;;;;5071400;28;20139;-72
2023/05/11 04:52:25;;;;;;;8.68;3.55;;;;;;;;;;5062441;28;20066;-72
2023/05/11 04:54:52;;;;;;;12.05;3.58;;;;;;;;;;5071603;28;20056;-72
2023/05/11 04:57:18;;;;;;;9.80;3.53;;;;;;;;;;5061230;28;20053;-72
2023/05/11 04:59:45;;;;;;;10.40;3.50;;;;;;;;;;5073764;28;20127;-72
2023/05/11 05:02:11;;;;;;;10.40;3.85;;;;;;;;;;5064803;28;20045;-72
2023/05/11 05:04:38;;;;;;;10.48;3.50;;;;;;;;;;5061428;28;20059;-72
2023/05/11 05:07:04;;;;;;;9.23;3.40;;;;;;;;;;5065655;28;20053;-72
2023/05/11 05:09:30;;;;;;;9.80;3.65;;;;;;;;;;5073604;28;20045;-72
2023/05/11 05:11:57;;;;;;;10.15;3.30;;;;;;;;;;5061030;28;20041;-71
2023/05/11 05:14:23;;;;;;;10.13;3.58;;;;;;;;;;5067823;28;20557;-71
2023/05/11 05:16:52;;;;;;;10.38;3.78;;;;;;;;;;5067580;28;20049;-71
2023/05/11 05:19:19;;;;;;;14.38;4.32;;;;;;;;;;5069084;28;20051;-71
2023/05/11 05:21:47;;;;;;;13.55;4.10;;;;;;;;;;5068251;28;20128;-71
2023/05/11 05:24:13;;;;;;;13.18;4.45;;;;;;;;;;5068223;28;20049;-71
2023/05/11 05:26:39;;;;;;;12.45;4.15;;;;;;;;;;5068946;28;20045;-71
2023/05/11 05:29:06;;;;;;;14.00;4.68;;;;;;;;;;5066511;28;20135;-71
2023/05/11 05:31:32;;;;;;;11.38;3.80;;;;;;;;;;5070621;28;20056;-71
2023/05/11 05:33:59;;;;;;;11.05;4.40;;;;;;;;;;5064352;28;20055;-71
2023/05/11 05:36:25;;;;;;;9.85;4.38;;;;;;;;;;5072350;28;20049;-71
2023/05/11 05:38:52;;;;;;;7.22;4.10;;;;;;;;;;5074649;28;20500;-71
2023/05/11 05:41:18;;;;;;;13.75;4.50;;;;;;;;;;5071387;28;20136;-72
2023/05/11 05:43:45;;;;;;;12.43;4.88;;;;;;;;;;5046802;28;20057;-72
2023/05/11 05:46:11;;;;;;;11.88;5.20;;;;;;;;;;5072283;28;20535;-71
2023/05/11 05:48:38;;;;;;;13.35;6.15;;;;;;;;;;5071339;28;20044;-71
2023/05/11 05:51:04;;;;;;;13.55;6.22;;;;;;;;;;5074136;28;20044;-70
2023/05/11 05:53:30;;;;;;;16.50;6.78;;;;;;;;;;5059542;28;20135;-72
2023/05/11 05:55:57;;;;;;;14.63;6.78;;;;;;;;;;5074503;28;20052;-71
2023/05/11 05:58:23;;;;;;;16.45;8.00;;;;;;;;;;5064392;28;20056;-70
2023/05/11 06:00:50;;;;;;;15.50;8.75;;;;;;;;;;5074559;28;20411;-71
2023/05/11 06:03:16;;;;;;;19.23;9.00;;;;;;;;;;5058265;28;20054;-71
2023/05/11 06:05:42;;;;;;;16.77;9.02;;;;;;;;;;5057475;28;20064;-71
2023/05/11 06:08:09;;;;;;;16.90;9.50;;;;;;;;;;5044461;28;20056;-72
2023/05/11 06:10:36;;;;;;;17.40;8.85;;;;;;;;;;5070851;28;20057;-70
2023/05/11 06:13:03;;;;;;;17.50;8.93;;;;;;;;;;5052385;28;20144;-71
2023/05/11 06:15:30;;;;;;;15.45;8.05;;;;;;;;;;5053468;28;20114;-71
2023/05/11 06:17:56;;;;;;;15.60;7.53;;;;;;;;;;5046118;28;20132;-71
2023/05/11 06:20:23;;;;;;;15.55;7.70;;;;;;;;;;5054675;28;20056;-71
2023/05/11 06:22:49;;;;;;;16.88;7.38;;;;;;;;;;5045793;28;20045;-70
2023/05/11 06:25:15;;;;;;;15.98;7.97;;;;;;;;;;5054100;28;20052;-72
2023/05/11 06:27:42;;;;;;;15.40;8.30;;;;;;;;;;5049532;28;20131;-71
2023/05/11 06:30:08;;;;;;;13.82;8.05;;;;;;;;;;5074050;28;20102;-72
2023/05/11 06:32:35;;;;;;;13.70;8.10;;;;;;;;;;5050000;28;20057;-72
2023/05/11 06:35:01;;;;;;;15.15;8.50;;;;;;;;;;5069436;28;20053;-72
2023/05/11 06:37:28;;;;;;;15.57;8.75;;;;;;;;;;5060263;28;20041;-73
2023/05/11 06:39:55;;;;;;;13.20;8.40;;;;;;;;;;5073508;28;20083;-71
2023/05/11 06:42:22;;;;;;;16.33;8.02;;;;;;;;;;5068831;28;20455;-68
2023/05/11 06:44:48;;;;;;;14.43;7.80;;;;;;;;;;5055125;28;20049;-69
2023/05/11 06:47:15;;;;;;;14.45;8.07;;;;;;;;;;5048366;28;20040;-69
2023/05/11 06:49:41;;;;;;;13.25;6.85;;;;;;;;;;5061938;28;20131;-69
2023/05/11 06:52:08;;;;;;;13.13;6.85;;;;;;;;;;5060671;28;20057;-69
2023/05/11 06:54:34;;;;;;;15.57;6.90;;;;;;;;;;5060990;28;20055;-69
2023/05/11 06:57:04;;;;;;;13.43;6.40;;;;;;;;;;5056099;28;20048;-69
2023/05/11 06:59:31;;;;;;;13.52;6.65;;;;;;;;;;5045508;28;20064;-69
2023/05/11 07:01:58;;;;;;;14.45;6.93;;;;;;;;;;5057742;28;20045;-69
2023/05/11 07:04:24;;;;;;;12.05;6.18;;;;;;;;;;5069563;28;20055;-69
2023/05/11 07:06:51;;;;;;;10.77;6.20;;;;;;;;;;5060676;28;20476;-68
2023/05/11 07:09:17;;;;;;;12.38;7.32;;;;;;;;;;5066596;28;20144;-68
2023/05/11 07:11:43;;;;;;;13.23;5.50;;;;;;;;;;5062313;28;20128;-69
2023/05/11 07:14:11;;;;;;;9.93;6.60;;;;;;;;;;5063037;28;20135;-69
2023/05/11 07:16:37;;;;;;;9.95;6.43;;;;;;;;;;5067121;28;20063;-69
2023/05/11 07:19:04;;;;;;;11.85;6.93;;;;;;;;;;5066288;28;20131;-69
2023/05/11 07:21:31;;;;;;;13.55;6.68;;;;;;;;;;5067185;28;20045;-69
2023/05/11 07:23:58;;;;;;;12.30;6.72;;;;;;;;;;5063309;28;20055;-68
2023/05/11 07:26:24;;;;;;;10.45;6.78;;;;;;;;;;5067204;28;20060;-69
2023/05/11 07:28:51;;;;;;;11.27;6.85;;;;;;;;;;5052548;28;20088;-69
2023/05/11 07:31:17;;;;;;;15.20;7.20;;;;;;;;;;5069281;28;20058;-69
2023/05/11 07:33:44;;;;;;;10.02;6.32;;;;;;;;;;5049074;28;20470;-68
2023/05/11 07:36:10;;;;;;;9.95;6.10;;;;;;;;;;5069767;28;20419;-68
2023/05/11 07:38:37;;;;;;;13.93;7.22;;;;;;;;;;5058055;28;20052;-69
2023/05/11 07:41:03;;;;;;;12.50;6.10;;;;;;;;;;5072252;28;20499;-69
2023/05/11 07:43:32;;;;;;;12.35;6.80;;;;;;;;;;5070681;28;20492;-69
2023/05/11 07:45:58;;;;;;;13.27;6.75;;;;;;;;;;5072256;28;20052;-69
2023/05/11 07:48:25;;;;;;;11.88;7.10;;;;;;;;;;5067452;28;20052;-69
2023/05/11 07:50:51;;;;;;;14.30;7.03;;;;;;;;;;5071869;28;20056;-69
2023/05/11 07:53:17;;;;;;;14.65;7.20;;;;;;;;;;5063193;28;20052;-69
2023/05/11 07:55:44;;;;;;;12.30;7.63;;;;;;;;;;5071992;28;20048;-69
2023/05/11 07:58:10;;;;;;;14.13;7.57;;;;;;;;;;5062035;28;20535;-69
2023/05/11 08:00:37;;;;;;;13.27;7.55;;;;;;;;;;5071974;28;20059;-69
2023/05/11 08:03:03;;;;;;;12.25;7.68;;;;;;;;;;5061503;28;20071;-69
2023/05/11 08:05:32;;;;;;;9.32;7.53;;;;;;;;;;5072169;28;20044;-69
2023/05/11 08:07:58;;;;;;;12.63;7.70;;;;;;;;;;5051747;28;20045;-68
2023/05/11 08:10:25;;;;;;;14.02;8.13;;;;;;;;;;5070913;28;20127;-69
2023/05/11 08:12:51;;;;;;;12.95;8.57;;;;;;;;;;5059623;28;20135;-69
2023/05/11 08:15:17;;;;;;;11.35;8.65;;;;;;;;;;5071864;28;20139;-69
2023/05/11 08:17:45;;;;;;;12.07;7.50;;;;;;;;;;5058545;28;20041;-69
2023/05/11 08:20:12;;;;;;;9.68;7.95;;;;;;;;;;5072071;28;20315;-69
2023/05/11 08:22:38;;;;;;;10.50;7.60;;;;;;;;;;5046597;28;20045;-69
2023/05/11 08:25:05;;;;;;;9.15;6.13;;;;;;;;;;5071740;28;20690;-69
2023/05/11 08:27:31;;;;;;;7.73;6.03;;;;;;;;;;5048053;28;20087;-69
2023/05/11 08:29:58;;;;;;;8.60;5.80;;;;;;;;;;5068899;28;20287;-69
2023/05/11 08:32:25;;;;;;;7.30;5.15;;;;;;;;;;5060049;28;20588;-69
2023/05/11 08:34:52;;;;;;;7.65;5.05;;;;;;;;;;5068814;28;20075;-69
2023/05/11 08:37:19;;;;;;;6.07;3.67;;;;;;;;;;5069705;28;20076;-69
2023/05/11 08:39:45;;;;;;;5.75;2.58;;;;;;;;;;5071483;28;20075;-69
2023/05/11 08:42:16;;;;;;;6.18;1.98;;;;;;;;;;5068490;28;20049;-69
2023/05/11 08:44:43;;;;;;;2.38;1.60;;;;;;;;;;5071833;28;20102;-69
2023/05/11 08:47:10;;;;;;;2.75;1.30;;;;;;;;;;5066015;28;20047;-69
2023/05/11 08:49:49;;;;;;;4.45;1.67;;;;;;;;;;5071373;28;20074;-67
2023/05/11 08:52:17;;;;;;;3.08;1.45;;;;;;;;;;5060104;28;20057;-67
2023/05/11 08:54:43;;;;;;;;;;;;;;;;;;5071879;28;20055;-67
2023/05/11 08:57:12;;;;;;;3.60;1.80;;;;;;;;;;5054551;28;19928;-67
2023/05/11 08:59:39;;;;;;;4.30;1.70;;;;;;;;;;5071465;28;20481;-67
2023/05/11 09:02:06;;;;;;;4.18;1.52;;;;;;;;;;5054575;28;20048;-67
2023/05/11 09:04:33;;;;;;;5.43;2.30;;;;;;;;;;5069598;28;20067;-68
2023/05/11 09:06:59;;;;;;;5.85;2.58;;;;;;;;;;5062394;28;20434;-67
2023/05/11 09:09:26;;;;;;;4.70;2.63;;;;;;;;;;5069110;28;20050;-67
2023/05/11 09:11:52;;;;;;;8.05;3.17;;;;;;;;;;5063674;28;20301;-67
2023/05/11 09:14:19;;;;;;;6.32;3.08;;;;;;;;;;5065750;28;20048;-67
2023/05/11 09:16:52;;;;;;;6.30;2.92;;;;;;;;;;5062860;28;20057;-67
2023/05/11 09:19:19;;;;;;;6.73;3.20;;;;;;;;;;5065906;28;20539;-67
2023/05/11 09:21:46;;;;;;;6.38;2.80;;;;;;;;;;5064396;28;20381;-67
2023/05/11 09:24:12;;;;;;;5.63;2.97;;;;;;;;;;5064596;28;20044;-67
2023/05/11 09:26:39;;;;;;;6.05;2.72;;;;;;;;;;5065061;28;20059;-67
2023/05/11 09:29:05;;;;;;;5.70;2.55;;;;;;;;;;5062318;28;20048;-67
2023/05/11 09:31:36;;;;;;;3.63;1.73;;;;;;;;;;5066793;28;20140;-67
2023/05/11 09:34:09;;;;;;;4.38;1.63;;;;;;;;;;5061393;28;20080;-67
2023/05/11 09:36:35;;;;;;;2.00;0.77;;;;;;;;;;5068291;28;20052;-67
2023/05/11 09:39:02;;;;;;;3.53;1.10;;;;;;;;;;5071237;28;20076;-67
2023/05/11 09:41:32;;;;;;;1.55;0.88;;;;;;;;;;5067907;28;20100;-67
2023/05/11 09:44:09;;;;;;;2.85;0.80;;;;;;;;;;5070951;28;20048;-67
2023/05/11 09:46:36;;;;;;;3.75;1.08;;;;;;;;;;5070613;28;20057;-67
2023/05/11 09:49:03;;;;;;;2.90;1.05;;;;;;;;;;5074696;28;20172;-68
2023/05/11 09:51:31;;;;;;;2.85;0.85;;;;;;;;;;5069707;28;20059;-67
2023/05/11 09:53:58;;;;;;;4.18;0.70;;;;;;;;;;5070860;28;20059;-67
2023/05/11 09:56:41;;;;;;;2.90;0.77;;;;;;;;;;5070695;28;20049;-67
2023/05/11 09:59:07;;;;;;;4.07;0.73;;;;;;;;;;5071010;28;20132;-67
2023/05/11 10:01:36;;;;;;;1.25;0.60;;;;;;;;;;5069528;28;20507;-67
2023/05/11 10:04:03;;;;;;;3.22;0.80;;;;;;;;;;5069191;28;20053;-67
2023/05/11 10:06:49;;;;;;;2.75;0.70;;;;;;;;;;5067449;28;20060;-67
2023/05/11 10:09:17;;;;;;;2.67;0.70;;;;;;;;;;5070045;28;20053;-67
2023/05/11 10:11:44;;;;;;;1.00;0.47;;;;;;;;;;5062396;28;20472;-67
2023/05/11 10:14:12;;;;;;;1.58;0.57;;;;;;;;;;5063737;28;20160;-68
2023/05/11 10:16:42;;;;;;;2.30;0.63;;;;;;;;;;5067923;28;20140;-68
2023/05/11 10:19:09;;;;;;;1.63;0.50;;;;;;;;;;5067870;28;20131;-68
2023/05/11 10:21:36;;;;;;;2.17;0.30;;;;;;;;;;5068259;28;20053;-68
2023/05/11 10:24:03;;;;;;;2.50;0.35;;;;;;;;;;5066080;28;20048;-68
2023/05/11 10:26:31;;;;;;;2.40;0.40;;;;;;;;;;5067717;28;20489;-68
2023/05/11 10:29:00;;;;;;;1.95;0.40;;;;;;;;;;5062936;28;20076;-68
2023/05/11 10:31:27;;;;;;;0.93;0.38;;;;;;;;;;5070290;28;20059;-68
2023/05/11 10:33:54;;;;;;;2.63;0.40;;;;;;;;;;5062588;28;20066;-68
2023/05/11 10:36:22;;;;;;;2.13;0.52;;;;;;;;;;5071422;28;20045;-68
2023/05/11 10:38:48;;;;;;;2.05;0.30;;;;;;;;;;5073574;28;20083;-68
2023/05/11 10:41:35;;;;;;;1.80;0.30;;;;;;;;;;5070805;28;20048;-68
2023/05/11 10:44:04;;;;;;;3.20;0.35;;;;;;;;;;5061617;28;20054;-68
2023/05/11 10:46:39;;;;;;;2.22;0.60;;;;;;;;;;5067779;28;20511;-68
2023/05/11 10:49:15;;;;;;;1.58;0.50;;;;;;;;;;5073710;28;20044;-68
2023/05/11 10:51:47;;;;;;;2.67;0.70;;;;;;;;;;5063724;28;20408;-69
2023/05/11 10:54:25;;;;;;;2.55;0.77;;;;;;;;;;5070312;28;20129;-68
2023/05/11 10:57:10;;;;;;;1.75;0.82;;;;;;;;;;5064409;28;20045;-69
2023/05/11 10:59:46;;;;;;;1.77;0.60;;;;;;;;;;5060119;28;20058;-68
2023/05/11 11:02:13;;;;;;;2.47;0.60;;;;;;;;;;5062349;28;20051;-69
2023/05/11 11:04:46;;;;;;;1.45;0.50;;;;;;;;;;5073184;28;20055;-69
2023/05/11 11:07:16;;;;;;;2.67;0.40;;;;;;;;;;5054597;28;20045;-69
2023/05/11 11:09:49;;;;;;;1.95;0.60;;;;;;;;;;5073451;28;20049;-69
2023/05/11 11:12:15;;;;;;;1.73;0.50;;;;;;;;;;5053252;28;20077;-69
2023/05/11 11:14:54;;;;;;;1.85;0.40;;;;;;;;;;5070667;28;20048;-69
2023/05/11 11:17:21;;;;;;;2.35;0.60;;;;;;;;;;5061001;28;20580;-69
2023/05/11 11:19:48;;;;;;;2.58;0.60;;;;;;;;;;5070734;28;20132;-69
2023/05/11 11:22:14;;;;;;;;;;;;;;;;;;5054355;28;20049;-68
2023/05/11 11:24:44;;;;;;;1.10;0.50;;;;;;;;;;5066881;28;20287;-68
2023/05/11 11:27:11;;;;;;;2.03;0.45;;;;;;;;;;5054782;28;20167;-69
2023/05/11 11:29:38;;;;;;;2.83;0.40;;;;;;;;;;5064431;28;20048;-69
2023/05/11 11:32:21;;;;;;;0.70;0.30;;;;;;;;;;5059061;28;20594;-69
2023/05/11 11:34:47;;;;;;;1.33;0.40;;;;;;;;;;5065208;28;20056;-69
2023/05/11 11:37:15;;;;;;;0.98;0.30;;;;;;;;;;5070291;28;20476;-69
2023/05/11 11:39:41;;;;;;;1.90;0.47;;;;;;;;;;5072659;28;20044;-69
2023/05/11 11:42:12;;;;;;;2.15;0.50;;;;;;;;;;5068875;28;20067;-69
2023/05/11 11:44:39;;;;;;;1.42;0.50;;;;;;;;;;5072355;28;20052;-69
2023/05/11 11:47:15;;;;;;;1.88;0.65;;;;;;;;;;5068309;28;20044;-69
2023/05/11 11:49:42;;;;;;;1.63;0.63;;;;;;;;;;5072579;28;20056;-69
2023/05/11 11:52:32;;;;;;;1.27;0.40;;;;;;;;;;5063041;28;20045;-69
2023/05/11 11:54:59;;;;;;;1.45;0.40;;;;;;;;;;5066646;28;20467;-69
2023/05/11 11:57:28;;;;;;;1.23;0.50;;;;;;;;;;5054740;28;20060;-69
2023/05/11 11:59:55;;;;;;;2.05;0.65;;;;;;;;;;5072093;28;20048;-69
2023/05/11 12:02:22;;;;;;;1.60;0.63;;;;;;;;;;5061589;28;20481;-69
2023/05/11 12:04:50;;;;;;;2.78;0.70;;;;;;;;;;5072048;28;20053;-69
2023/05/11 12:07:18;;;;;;;3.35;0.50;;;;;;;;;;5060774;28;20053;-69
2023/05/11 12:09:45;;;;;;;0.88;0.47;;;;;;;;;;5058402;28;20049;-69
2023/05/11 12:12:11;;;;;;;0.90;0.38;;;;;;;;;;5057697;28;20409;-69
2023/05/11 12:14:39;;;;;;;1.40;0.50;;;;;;;;;;5068998;28;20064;-69
2023/05/11 12:17:14;;;;;;;4.82;0.85;;;;;;;;;;5061953;28;20045;-69
2023/05/11 12:19:43;;;;;;;2.08;0.80;;;;;;;;;;5069700;28;20504;-69
2023/05/11 12:22:09;;;;;;;0.93;0.40;;;;;;;;;;5061509;28;20051;-69
2023/05/11 12:24:37;;;;;;;1.52;0.35;;;;;;;;;;5068144;28;20048;-69
2023/05/11 12:27:04;;;;;;;1.83;0.50;;;;;;;;;;5062472;28;20049;-69
2023/05/11 12:29:31;;;;;;;1.15;0.43;;;;;;;;;;5066866;28;20052;-69
2023/05/11 12:31:58;;;;;;;1.60;0.35;;;;;;;;;;5064092;28;20076;-69
2023/05/11 12:34:24;;;;;;;1.10;0.55;;;;;;;;;;5064880;28;20427;-69
2023/05/11 12:36:52;;;;;;;1.13;0.70;;;;;;;;;;5069253;28;20106;-69
2023/05/11 12:39:19;;;;;;;1.15;0.60;;;;;;;;;;5071524;28;20048;-69
2023/05/11 12:41:47;;;;;;;1.50;0.30;;;;;;;;;;5067667;28;20500;-69
2023/05/11 12:44:15;;;;;;;1.17;0.38;;;;;;;;;;5071673;28;20048;-69
2023/05/11 12:46:42;;;;;;;0.82;0.20;;;;;;;;;;5066115;28;20049;-69
2023/05/11 12:49:08;;;;;;;1.50;0.40;;;;;;;;;;5069845;28;20488;-69
2023/05/11 12:51:41;;;;;;;1.35;0.20;;;;;;;;;;5066148;28;20127;-69
2023/05/11 12:54:07;;;;;;;1.20;0.30;;;;;;;;;;5069300;28;20059;-68
2023/05/11 12:56:44;;;;;;;1.02;0.30;;;;;;;;;;5066230;28;20095;-68
2023/05/11 12:59:28;;;;;;;1.23;0.52;;;;;;;;;;5068521;28;20587;-69
2023/05/11 13:02:03;;;;;;;1.42;0.40;;;;;;;;;;5057201;28;20077;-69
2023/05/11 13:04:30;;;;;;;2.05;0.40;;;;;;;;;;5068935;28;20055;-69
2023/05/11 13:06:56;;;;;;;1.45;0.40;;;;;;;;;;5063151;28;20055;-69
2023/05/11 13:09:23;;;;;;;1.65;0.43;;;;;;;;;;5068413;28;20840;-68
2023/05/11 13:12:05;;;;;;;2.28;0.45;;;;;;;;;;5060685;28;20095;-68
2023/05/11 13:14:32;;;;;;;0.77;0.30;;;;;;;;;;5069005;28;20052;-68
2023/05/11 13:16:58;;;;;;;1.40;0.30;;;;;;;;;;5061640;28;20053;-68
2023/05/11 13:19:28;;;;;;;1.83;0.40;;;;;;;;;;5067410;28;20044;-68
2023/05/11 13:21:55;;;;;;;1.55;0.40;;;;;;;;;;5067173;28;20111;-68
2023/05/11 13:24:22;;;;;;;0.60;0.20;;;;;;;;;;5068167;28;20044;-68
2023/05/11 13:26:50;;;;;;;1.42;0.30;;;;;;;;;;5067677;28;20080;-68
2023/05/11 13:29:16;;;;;;;1.10;0.40;;;;;;;;;;5068181;28;20059;-68
2023/05/11 13:31:44;;;;;;;1.58;0.60;;;;;;;;;;5069631;28;20132;-69
2023/05/11 13:34:10;;;;;;;1.92;0.55;;;;;;;;;;5066440;28;20442;-69
2023/05/11 13:36:36;;;;;;;;;;;;;;;;;;5071976;28;20044;-69
2023/05/11 13:39:03;;;;;;;0.73;0.30;;;;;;;;;;5074754;28;19921;-69
2023/05/11 13:41:30;;;;;;;2.28;0.50;;;;;;;;;;5071327;28;20050;-69
2023/05/11 13:43:56;;;;;;;1.40;0.55;;;;;;;;;;5074182;28;20500;-69
2023/05/11 13:46:23;;;;;;;0.93;0.40;;;;;;;;;;5071013;28;20066;-69
2023/05/11 13:48:49;;;;;;;2.03;0.40;;;;;;;;;;5074695;28;20498;-69
2023/05/11 13:51:16;;;;;;;2.63;0.30;;;;;;;;;;5072289;28;20053;-69
2023/05/11 13:53:43;;;;;;;1.27;0.30;;;;;;;;;;5068775;28;20380;-69
2023/05/11 13:56:10;;;;;;;1.08;0.20;;;;;;;;;;5071796;28;20128;-69
2023/05/11 13:58:36;;;;;;;0.82;0.35;;;;;;;;;;5057898;28;20048;-69
2023/05/11 14:01:03;;;;;;;1.17;0.30;;;;;;;;;;5074536;28;20036;-68
2023/05/11 14:03:33;;;;;;;0.75;0.10;;;;;;;;;;5065163;28;20052;-68
2023/05/11 14:06:00;;;;;;;0.30;0.10;;;;;;;;;;5074186;28;20071;-68
2023/05/11 14:08:26;;;;;;;2.08;0.30;;;;;;;;;;5054074;28;20518;-68
2023/05/11 14:10:53;;;;;;;0.98;0.20;;;;;;;;;;5074431;28;20052;-68
2023/05/11 14:13:19;;;;;;;0.77;0.30;;;;;;;;;;5062002;28;20054;-68
2023/05/11 14:15:45;;;;;;;1.25;0.40;;;;;;;;;;5074287;28;20056;-68
2023/05/11 14:18:12;;;;;;;2.58;0.30;;;;;;;;;;5050484;28;20044;-68
2023/05/11 14:20:42;;;;;;;0.60;0.28;;;;;;;;;;5074101;28;20098;-68
2023/05/11 14:23:08;;;;;;;1.08;0.20;;;;;;;;;;5048834;28;20076;-68
2023/05/11 14:25:35;;;;;;;0.57;0.28;;;;;;;;;;5074166;28;20049;-67
2023/05/11 14:28:01;;;;;;;0.82;0.20;;;;;;;;;;5057121;28;20136;-68
2023/05/11 14:30:28;;;;;;;0.43;0.20;;;;;;;;;;5073710;28;20123;-68
2023/05/11 14:32:54;;;;;;;0.65;0.10;;;;;;;;;;5044712;28;20049;-67
2023/05/11 14:35:21;;;;;;;0.82;0.20;;;;;;;;;;5072733;28;20055;-67
2023/05/11 14:37:47;;;;;;;1.33;0.28;;;;;;;;;;5070710;28;20049;-68
2023/05/11 14:40:14;;;;;;;0.65;0.20;;;;;;;;;;5073775;28;20120;-68
2023/05/11 14:42:40;;;;;;;0.32;0.10;;;;;;;;;;5070423;28;20053;-68
2023/05/11 14:45:07;;;;;;;0.17;0.13;;;;;;;;;;5073623;28;20072;-68